createdAt,value
2023-04-22T00:01:24.483Z,6.88
2023-04-22T00:03:51.620Z,6.10
2023-04-22T00:06:18.774Z,6.25
2023-04-22T00:08:45.373Z,5.95
2023-04-22T00:11:11.904Z,6.35
2023-04-22T00:13:38.417Z,6.28
2023-04-22T00:16:05.046Z,6.35
2023-04-22T00:18:31.626Z,6.47
2023-04-22T00:20:58.199Z,6.90
2023-04-22T00:23:24.809Z,7.05
2023-04-22T00:25:51.297Z,6.35
2023-04-22T00:28:18.784Z,6.85
2023-04-22T00:30:45.373Z,7.00
2023-04-22T00:33:12.097Z,5.90
2023-04-22T00:35:38.661Z,6.95
2023-04-22T00:38:05.153Z,6.20
2023-04-22T00:40:31.679Z,6.35
2023-04-22T00:42:59.905Z,6.32
2023-04-22T00:45:26.783Z,6.57
2023-04-22T00:47:53.576Z,6.30
2023-04-22T00:50:20.138Z,6.53
2023-04-22T00:52:46.653Z,6.13
2023-04-22T00:55:13.275Z,6.40
2023-04-22T00:57:40.230Z,5.95
2023-04-22T01:00:07.457Z,6.13
2023-04-22T01:02:34.099Z,6.72
2023-04-22T01:05:01.241Z,6.88
2023-04-22T01:07:27.803Z,6.78
2023-04-22T01:09:54.630Z,6.53
2023-04-22T01:12:21.150Z,6.88
2023-04-22T01:14:47.709Z,6.80
2023-04-22T01:17:16.290Z,6.70
2023-04-22T01:19:43.840Z,6.57
2023-04-22T01:22:13.447Z,6.65
2023-04-22T01:24:40.082Z,6.53
2023-04-22T01:27:07.135Z,6.90
2023-04-22T01:29:33.947Z,6.60
2023-04-22T01:32:00.910Z,6.93
2023-04-22T01:34:30.579Z,6.70
2023-04-22T01:36:57.399Z,6.95
2023-04-22T01:42:26.478Z,6.75
2023-04-22T01:44:53.601Z,7.07
2023-04-22T01:47:20.199Z,6.95
2023-04-22T01:49:46.695Z,7.07
2023-04-22T01:52:13.345Z,6.68
2023-04-22T01:54:40.963Z,7.35
2023-04-22T01:57:14.184Z,6.87
2023-04-22T01:59:41.221Z,6.68
2023-04-22T02:02:08.313Z,6.82
2023-04-22T02:04:35.134Z,7.20
2023-04-22T02:07:02.200Z,7.72
2023-04-22T02:09:28.776Z,6.60
2023-04-22T02:57:33.324Z,8.73
2023-04-22T03:00:00.231Z,7.82
2023-04-22T03:02:27.226Z,8.60
2023-04-22T03:05:10.740Z,8.57
2023-04-22T03:07:37.292Z,8.13
2023-04-22T03:10:04.088Z,8.02
2023-04-22T03:12:30.637Z,8.85
2023-04-22T03:14:57.209Z,9.27
2023-04-22T03:17:28.047Z,8.17
2023-04-22T03:19:55.130Z,8.00
2023-04-22T03:22:21.727Z,8.93
2023-04-22T03:24:49.235Z,8.15
2023-04-22T03:27:16.167Z,7.95
2023-04-22T03:29:42.897Z,8.18
2023-04-22T03:32:09.883Z,7.68
2023-04-22T03:34:37.463Z,8.18
2023-04-22T03:37:05.660Z,7.68
2023-04-22T03:39:32.186Z,7.43
2023-04-22T03:41:59.141Z,8.02
2023-04-22T03:44:26.215Z,7.65
2023-04-22T03:46:54.451Z,8.27
2023-04-22T03:49:24.534Z,8.10
2023-04-22T03:51:51.035Z,9.32
2023-04-22T03:54:21.526Z,7.75
2023-04-22T03:56:51.215Z,8.20
2023-04-22T03:59:19.135Z,8.38
2023-04-22T04:01:46.609Z,8.23
2023-04-22T04:04:13.494Z,8.95
2023-04-22T04:06:50.364Z,8.18
2023-04-22T04:09:16.897Z,8.40
2023-04-22T04:11:43.425Z,8.38
2023-04-22T04:14:10.702Z,7.38
2023-04-22T04:16:47.300Z,8.77
2023-04-22T04:19:22.139Z,8.18
2023-04-22T04:21:48.703Z,8.60
2023-04-22T04:24:15.366Z,8.70
2023-04-22T04:26:46.291Z,9.43
2023-04-22T04:29:15.860Z,8.75
2023-04-22T04:31:48.489Z,8.48
2023-04-22T04:34:15.489Z,8.10
2023-04-22T04:36:42.072Z,8.23
2023-04-22T04:39:18.892Z,8.38
2023-04-22T04:41:45.879Z,8.05
2023-04-22T04:44:12.496Z,8.73
2023-04-22T04:46:40.645Z,7.85
2023-04-22T04:49:09.585Z,7.93
2023-04-22T04:51:44.840Z,8.23
2023-04-22T04:54:11.449Z,8.73
2023-04-22T04:56:40.029Z,8.15
2023-04-22T04:59:08.350Z,9.73
2023-04-22T05:01:35.250Z,8.25
2023-04-22T05:04:06.526Z,8.70
2023-04-22T05:06:33.769Z,8.02
2023-04-22T05:09:03.694Z,8.93
2023-04-22T05:11:30.435Z,8.57
2023-04-22T05:13:58.833Z,8.73
2023-04-22T05:16:31.047Z,8.45
2023-04-22T05:18:58.297Z,8.18
2023-04-22T05:21:24.839Z,8.55
2023-04-22T05:23:51.412Z,8.13
2023-04-22T05:26:19.191Z,8.57
2023-04-22T05:28:48.169Z,8.63
2023-04-22T05:31:16.185Z,8.73
2023-04-22T05:33:43.083Z,8.82
2023-04-22T05:36:09.661Z,9.00
2023-04-22T05:38:36.383Z,8.48
2023-04-22T05:41:02.863Z,7.95
2023-04-22T05:43:30.908Z,8.43
2023-04-22T05:46:04.719Z,8.57
2023-04-22T05:48:33.611Z,8.43
2023-04-22T05:51:03.532Z,8.70
2023-04-22T05:53:30.748Z,7.80
2023-04-22T05:55:59.591Z,8.27
2023-04-22T05:58:26.134Z,8.18
2023-04-22T06:00:59.936Z,7.53
2023-04-22T06:03:56.074Z,7.68
2023-04-22T06:06:24.404Z,8.05
2023-04-22T06:08:51.084Z,8.73
2023-04-22T06:11:17.793Z,8.40
2023-04-22T06:13:44.557Z,7.63
2023-04-22T06:16:11.982Z,7.85
2023-04-22T06:18:38.753Z,8.05
2023-04-22T06:21:09.538Z,7.75
2023-04-22T06:23:36.967Z,8.13
2023-04-22T06:26:03.884Z,7.93
2023-04-22T06:28:30.656Z,7.82
2023-04-22T06:31:02.233Z,8.13
2023-04-22T06:33:29.803Z,8.18
2023-04-22T06:35:56.545Z,7.85
2023-04-22T06:38:23.422Z,7.45
2023-04-22T06:41:08.455Z,7.50
2023-04-22T06:43:38.575Z,8.20
2023-04-22T06:46:05.349Z,8.02
2023-04-22T06:49:07.220Z,8.25
2023-04-22T06:51:53.990Z,7.55
2023-04-22T06:54:20.688Z,6.85
2023-04-22T06:56:47.259Z,7.45
2023-04-22T06:59:13.887Z,7.20
2023-04-22T07:01:40.943Z,7.38
2023-04-22T07:04:07.498Z,7.35
2023-04-22T07:06:34.718Z,7.40
2023-04-22T07:09:01.882Z,7.93
2023-04-22T07:11:28.584Z,8.32
2023-04-22T07:14:01.361Z,6.75
2023-04-22T07:16:28.683Z,8.10
2023-04-22T07:18:55.429Z,7.10
2023-04-22T07:21:22.038Z,7.85
2023-04-22T07:23:48.782Z,6.70
2023-04-22T07:26:15.393Z,7.10
2023-04-22T07:28:41.915Z,7.78
2023-04-22T07:31:08.469Z,7.55
2023-04-22T07:33:34.973Z,7.40
2023-04-22T07:36:01.652Z,6.82
2023-04-22T07:38:28.282Z,6.97
2023-04-22T07:40:54.929Z,7.40
2023-04-22T07:43:21.412Z,6.72
2023-04-22T07:45:48.102Z,7.50
2023-04-22T07:48:14.692Z,7.18
2023-04-22T07:50:41.327Z,7.65
2023-04-22T07:53:07.879Z,7.22
2023-04-22T07:55:34.589Z,7.43
2023-04-22T07:58:03.489Z,7.90
2023-04-22T08:00:30.554Z,7.80
2023-04-22T08:02:57.164Z,7.47
2023-04-22T08:05:23.882Z,7.47
2023-04-22T08:07:50.501Z,6.05
2023-04-22T08:10:17.030Z,6.80
2023-04-22T08:12:43.650Z,7.25
2023-04-22T08:15:10.266Z,6.90
2023-04-22T08:17:36.893Z,7.15
2023-04-22T08:20:06.533Z,7.45
2023-04-22T08:22:35.683Z,6.97
2023-04-22T08:25:02.996Z,6.57
2023-04-22T08:27:29.528Z,6.70
2023-04-22T08:29:56.092Z,7.18
2023-04-22T08:32:25.018Z,7.03
2023-04-22T08:34:52.132Z,6.63
2023-04-22T08:37:20.786Z,6.38
2023-04-22T08:39:47.272Z,6.50
2023-04-22T08:42:14.187Z,6.28
2023-04-22T08:44:41.354Z,6.47
2023-04-22T08:47:08.610Z,6.78
2023-04-22T08:49:35.429Z,6.28
2023-04-22T08:52:01.948Z,6.25
2023-04-22T08:54:28.589Z,6.32
2023-04-22T08:56:55.538Z,6.32
2023-04-22T08:59:22.929Z,6.70
2023-04-22T09:01:52.444Z,5.72
2023-04-22T09:04:19.525Z,6.10
2023-04-22T09:06:46.272Z,6.00
2023-04-22T09:09:12.794Z,6.15
2023-04-22T09:11:39.365Z,5.88
2023-04-22T09:14:06.589Z,5.70
2023-04-22T09:16:45.009Z,5.88
2023-04-22T09:19:12.834Z,5.53
2023-04-22T09:21:40.933Z,6.28
2023-04-22T09:24:08.479Z,5.10
2023-04-22T09:26:39.503Z,5.80
2023-04-22T09:29:09.439Z,5.70
2023-04-22T09:31:38.113Z,6.00
2023-04-22T09:34:05.221Z,6.15
2023-04-22T09:36:37.739Z,5.72
2023-04-22T09:39:07.347Z,5.53
2023-04-22T09:41:36.815Z,5.45
2023-04-22T09:44:04.636Z,5.03
2023-04-22T09:46:31.748Z,5.10
2023-04-22T09:48:59.757Z,5.30
2023-04-22T09:51:27.605Z,5.13
2023-04-22T09:54:06.880Z,5.03
2023-04-22T09:56:50.525Z,4.57
2023-04-22T09:59:34.513Z,5.80
2023-04-22T10:02:06.854Z,4.88
2023-04-22T10:04:34.318Z,4.75
2023-04-22T10:07:02.793Z,4.85
2023-04-22T10:09:29.554Z,5.07
2023-04-22T10:12:00.000Z,4.68
2023-04-22T10:14:27.168Z,5.43
2023-04-22T10:16:59.323Z,5.00
2023-04-22T10:19:27.242Z,4.40
2023-04-22T10:21:56.744Z,5.03
2023-04-22T10:24:26.676Z,5.00
2023-04-22T10:26:58.014Z,4.53
2023-04-22T10:29:26.199Z,4.60
2023-04-22T10:32:07.942Z,4.53
2023-04-22T10:34:37.355Z,4.93
2023-04-22T10:37:09.300Z,4.93
2023-04-22T10:39:35.846Z,4.38
2023-04-22T10:42:02.286Z,4.80
2023-04-22T10:44:30.655Z,3.85
2023-04-22T10:46:58.807Z,5.13
2023-04-22T10:49:26.777Z,4.75
2023-04-22T10:51:54.831Z,4.32
2023-04-22T10:54:31.055Z,4.75
2023-04-22T10:57:07.737Z,4.43
2023-04-22T10:59:49.510Z,4.90
2023-04-22T11:02:17.734Z,4.55
2023-04-22T11:04:44.400Z,4.55
2023-04-22T11:07:14.653Z,4.32
2023-04-22T11:09:42.026Z,4.53
2023-04-22T11:12:35.109Z,4.10
2023-04-22T11:15:05.209Z,4.40
2023-04-22T11:17:31.943Z,3.80
2023-04-22T11:19:58.974Z,4.43
2023-04-22T11:22:29.692Z,4.47
2023-04-22T11:24:57.158Z,3.83
2023-04-22T11:27:27.723Z,3.58
2023-04-22T11:30:05.039Z,3.95
2023-04-22T11:32:31.920Z,4.38
2023-04-22T11:34:59.839Z,3.83
2023-04-22T11:37:27.536Z,3.97
2023-04-22T11:40:13.742Z,3.80
2023-04-22T11:42:40.783Z,3.60
2023-04-22T11:45:07.955Z,4.15
2023-04-22T11:47:35.322Z,4.30
2023-04-22T11:50:07.196Z,3.95
2023-04-22T11:52:47.473Z,4.10
2023-04-22T11:55:14.868Z,3.70
2023-04-22T11:57:42.697Z,4.03
2023-04-22T12:00:15.062Z,4.05
2023-04-22T12:02:42.043Z,3.70
2023-04-22T12:05:14.789Z,3.72
2023-04-22T12:07:43.169Z,3.80
2023-04-22T12:10:10.877Z,4.18
2023-04-22T12:12:39.741Z,3.70
2023-04-22T12:15:16.226Z,4.68
2023-04-22T12:17:46.957Z,3.67
2023-04-22T12:20:13.543Z,3.83
2023-04-22T12:22:40.050Z,3.78
2023-04-22T12:25:06.848Z,4.07
2023-04-22T12:27:33.360Z,3.65
2023-04-22T12:30:00.191Z,3.33
2023-04-22T12:32:27.033Z,3.50
2023-04-22T12:34:53.681Z,4.47
2023-04-22T12:37:20.445Z,4.25
2023-04-22T12:39:46.965Z,3.38
2023-04-22T12:42:13.528Z,3.60
2023-04-22T12:44:40.214Z,3.55
2023-04-22T12:47:07.010Z,3.80
2023-04-22T12:49:33.524Z,4.28
2023-04-22T12:52:00.027Z,3.50
2023-04-22T12:54:26.585Z,3.42
2023-04-22T12:56:53.094Z,3.80
2023-04-22T12:59:19.621Z,3.60
2023-04-22T13:01:46.190Z,3.95
2023-04-22T13:04:12.789Z,3.85
2023-04-22T13:06:39.468Z,4.10
2023-04-22T13:09:06.664Z,4.10
2023-04-22T13:11:33.240Z,4.00
2023-04-22T13:13:59.759Z,3.90
2023-04-22T13:16:26.333Z,3.90
2023-04-22T13:18:52.849Z,4.30
2023-04-22T13:21:19.595Z,3.70
2023-04-22T13:23:46.144Z,3.88
2023-04-22T13:26:12.723Z,3.67
2023-04-22T13:28:39.231Z,4.15
2023-04-22T13:31:06.225Z,3.70
2023-04-22T13:33:32.764Z,4.00
2023-04-22T13:35:59.291Z,4.30
2023-04-22T13:38:26.373Z,4.82
2023-04-22T13:40:53.285Z,4.28
2023-04-22T13:43:21.281Z,4.28
2023-04-22T13:45:48.765Z,4.13
2023-04-22T13:48:16.045Z,4.28
2023-04-22T13:50:42.844Z,4.13
2023-04-22T13:53:10.719Z,3.92
2023-04-22T13:55:38.128Z,3.90
2023-04-22T13:58:08.286Z,3.95
2023-04-22T14:00:34.951Z,3.80
2023-04-22T14:03:01.692Z,3.70
2023-04-22T14:05:28.293Z,3.83
2023-04-22T14:07:54.850Z,4.75
2023-04-22T14:10:22.120Z,3.90
2023-04-22T14:12:49.243Z,3.70
2023-04-22T14:15:15.805Z,3.72
2023-04-22T14:17:42.520Z,4.03
2023-04-22T14:20:11.081Z,3.90
2023-04-22T14:22:37.840Z,4.10
2023-04-22T14:25:04.613Z,3.78
2023-04-22T14:27:31.213Z,3.63
2023-04-22T14:29:58.204Z,3.83
2023-04-22T14:32:25.792Z,3.78
2023-04-22T14:34:52.390Z,3.92
2023-04-22T14:37:18.984Z,3.95
2023-04-22T14:39:45.695Z,4.00
2023-04-22T14:42:12.363Z,4.28
2023-04-22T14:44:38.931Z,3.95
2023-04-22T14:47:06.123Z,4.22
2023-04-22T14:49:33.361Z,4.30
2023-04-22T14:52:01.126Z,4.05
2023-04-22T14:54:28.168Z,3.90
2023-04-22T14:56:55.967Z,4.70
2023-04-22T14:59:22.552Z,3.83
2023-04-22T15:01:49.178Z,3.80
2023-04-22T15:04:16.603Z,4.15
2023-04-22T15:06:43.234Z,4.22
2023-04-22T15:09:09.798Z,3.72
2023-04-22T15:11:36.314Z,3.97
2023-04-22T15:14:03.008Z,4.18
2023-04-22T15:16:30.040Z,4.10
2023-04-22T15:18:56.693Z,4.22
2023-04-22T15:21:23.248Z,4.30
2023-04-22T15:23:49.766Z,4.30
2023-04-22T15:26:16.473Z,3.78
2023-04-22T15:28:43.135Z,3.92
2023-04-22T15:31:09.704Z,4.53
2023-04-22T15:33:36.601Z,3.65
2023-04-22T15:36:04.114Z,3.92
2023-04-22T15:38:30.884Z,3.67
2023-04-22T15:40:57.405Z,4.00
2023-04-22T15:43:24.056Z,3.70
2023-04-22T15:45:50.608Z,4.10
2023-04-22T15:48:18.818Z,4.13
2023-04-22T15:50:45.402Z,3.95
2023-04-22T15:53:11.926Z,4.13
2023-04-22T15:55:38.416Z,3.80
2023-04-22T15:58:04.988Z,3.60
2023-04-22T16:00:31.509Z,3.70
2023-04-22T16:02:58.421Z,3.90
2023-04-22T16:05:25.401Z,4.05
2023-04-22T16:07:53.021Z,3.70
2023-04-22T16:10:19.862Z,3.70
2023-04-22T16:12:46.966Z,4.18
2023-04-22T16:15:13.561Z,4.55
2023-04-22T16:17:40.225Z,3.67
2023-04-22T16:20:07.621Z,3.40
2023-04-22T16:22:34.394Z,3.88
2023-04-22T16:25:01.057Z,3.75
2023-04-22T16:27:27.826Z,4.35
2023-04-22T16:29:54.323Z,4.13
2023-04-22T16:32:20.913Z,4.35
2023-04-22T16:34:47.478Z,4.15
2023-04-22T16:37:14.035Z,4.28
2023-04-22T16:39:40.924Z,4.57
2023-04-22T16:42:07.630Z,4.20
2023-04-22T16:44:34.165Z,4.32
2023-04-22T16:47:00.753Z,3.90
2023-04-22T16:49:27.475Z,4.78
2023-04-22T16:51:54.326Z,5.50
2023-04-22T16:54:20.852Z,4.05
2023-04-22T16:56:47.333Z,3.78
2023-04-22T16:59:14.571Z,4.53
2023-04-22T17:01:42.048Z,4.40
2023-04-22T17:04:08.831Z,4.00
2023-04-22T17:06:36.596Z,4.63
2023-04-22T17:09:05.742Z,4.57
2023-04-22T17:11:32.325Z,4.40
2023-04-22T17:13:59.000Z,3.83
2023-04-22T17:16:25.731Z,4.18
2023-04-22T17:18:52.413Z,4.13
2023-04-22T17:21:18.988Z,4.35
2023-04-22T17:23:45.498Z,4.10
2023-04-22T17:26:12.156Z,4.38
2023-04-22T17:28:38.738Z,4.43
2023-04-22T17:31:05.327Z,4.85
2023-04-22T17:33:31.946Z,4.47
2023-04-22T17:35:58.684Z,4.80
2023-04-22T17:38:25.177Z,4.97
2023-04-22T17:40:51.716Z,4.40
2023-04-22T17:43:18.325Z,4.53
2023-04-22T17:45:44.858Z,4.60
2023-04-22T17:48:11.403Z,4.40
2023-04-22T17:50:38.014Z,4.32
2023-04-22T17:53:04.533Z,4.95
2023-04-22T17:55:34.970Z,4.25
2023-04-22T17:58:04.813Z,4.22
2023-04-22T18:00:32.936Z,3.97
2023-04-22T18:02:59.753Z,5.10
2023-04-22T18:05:27.290Z,4.28
2023-04-22T18:08:00.685Z,4.97
2023-04-22T18:10:27.293Z,4.53
2023-04-22T18:12:53.803Z,4.68
2023-04-22T18:15:22.223Z,5.95
2023-04-22T18:17:49.483Z,5.57
2023-04-22T18:20:18.831Z,4.95
2023-04-22T18:22:46.695Z,5.28
2023-04-22T18:25:13.238Z,5.38
2023-04-22T18:27:39.926Z,5.25
2023-04-22T18:30:07.144Z,5.68
2023-04-22T18:32:33.760Z,5.40
2023-04-22T18:35:00.286Z,5.85
2023-04-22T18:37:29.691Z,5.47
2023-04-22T18:39:57.439Z,5.70
2023-04-22T18:42:24.142Z,4.90
2023-04-22T18:44:50.647Z,5.22
2023-04-22T18:47:17.216Z,5.50
2023-04-22T18:49:45.242Z,5.72
2023-04-22T18:52:11.945Z,5.70
2023-04-22T18:54:38.909Z,5.53
2023-04-22T18:57:06.209Z,5.18
2023-04-22T18:59:32.794Z,5.63
2023-04-22T19:01:59.430Z,5.70
2023-04-22T19:04:27.474Z,5.95
2023-04-22T19:06:56.826Z,6.53
2023-04-22T19:09:23.831Z,6.68
2023-04-22T19:11:50.446Z,5.90
2023-04-22T19:14:17.453Z,5.95
2023-04-22T19:16:44.103Z,6.32
2023-04-22T19:19:11.895Z,6.38
2023-04-22T19:21:39.194Z,6.47
2023-04-22T19:24:06.555Z,5.95
2023-04-22T19:26:33.543Z,6.22
2023-04-22T19:29:00.159Z,6.22
2023-04-22T19:31:28.312Z,7.13
2023-04-22T19:33:54.875Z,6.60
2023-04-22T19:36:21.469Z,7.68
2023-04-22T19:38:47.984Z,6.25
2023-04-22T19:41:14.556Z,6.90
2023-04-22T19:43:41.317Z,7.07
2023-04-22T19:46:07.852Z,6.25
2023-04-22T19:48:34.618Z,6.47
2023-04-22T19:51:01.531Z,6.50
2023-04-22T19:53:29.554Z,6.88
2023-04-22T19:55:56.344Z,6.78
2023-04-22T19:58:22.964Z,7.20
2023-04-22T20:00:49.776Z,7.20
2023-04-22T20:03:16.823Z,7.00
2023-04-22T20:05:43.816Z,6.93
2023-04-22T20:08:11.715Z,7.43
2023-04-22T20:10:38.615Z,7.60
2023-04-22T20:13:05.642Z,7.10
2023-04-22T20:15:33.035Z,7.28
2023-04-22T20:17:59.858Z,7.25
2023-04-22T20:20:27.596Z,6.70
2023-04-22T20:22:55.018Z,7.18
2023-04-22T20:25:23.150Z,7.15
2023-04-22T20:27:49.805Z,8.07
2023-04-22T20:30:16.636Z,8.38
2023-04-22T20:32:43.281Z,7.78
2023-04-22T20:35:16.421Z,7.88
2023-04-22T20:37:43.732Z,7.65
2023-04-22T20:40:11.303Z,7.40
2023-04-22T20:42:37.797Z,7.03
2023-04-22T20:45:05.553Z,7.18
2023-04-22T20:47:32.527Z,7.30
2023-04-22T20:49:59.457Z,7.57
2023-04-22T20:52:26.536Z,7.80
2023-04-22T20:54:56.592Z,6.90
2023-04-22T20:57:23.772Z,7.17
2023-04-22T20:59:50.265Z,7.47
2023-04-22T21:02:18.065Z,6.68
2023-04-22T21:04:44.897Z,6.85
2023-04-22T21:07:14.467Z,6.70
2023-04-22T21:09:41.580Z,6.95
2023-04-22T21:12:10.381Z,7.28
2023-04-22T21:14:43.178Z,6.25
2023-04-22T21:17:21.217Z,6.63
2023-04-22T21:19:49.717Z,7.25
2023-04-22T21:22:21.491Z,7.30
2023-04-22T21:24:51.862Z,6.22
2023-04-22T21:27:19.542Z,6.40
2023-04-22T21:29:47.561Z,6.72
2023-04-22T21:32:14.450Z,6.95
2023-04-22T21:34:41.330Z,6.40
2023-04-22T21:37:08.545Z,7.82
2023-04-22T21:39:35.596Z,6.32
2023-04-22T21:42:08.384Z,6.95
2023-04-22T21:44:36.446Z,6.60
2023-04-22T21:47:03.641Z,6.80
2023-04-22T21:49:30.138Z,6.47
2023-04-22T21:51:56.697Z,6.80
2023-04-22T21:54:23.288Z,6.40
2023-04-22T21:56:50.722Z,6.47
2023-04-22T21:59:17.388Z,7.25
2023-04-22T22:01:44.143Z,7.15
2023-04-22T22:04:13.930Z,7.22
2023-04-22T22:06:42.231Z,6.53
2023-04-22T22:09:08.989Z,6.53
2023-04-22T22:11:35.941Z,6.97
2023-04-22T22:14:02.705Z,7.18
2023-04-22T22:16:29.520Z,6.97
2023-04-22T22:18:57.836Z,6.72
2023-04-22T22:21:24.536Z,7.20
2023-04-22T22:23:51.097Z,7.00
2023-04-22T22:26:17.585Z,7.13
2023-04-22T22:28:44.106Z,7.20
2023-04-22T22:31:10.709Z,7.93
2023-04-22T22:33:37.377Z,7.18
2023-04-22T22:36:03.916Z,7.10
2023-04-22T22:38:30.499Z,7.10
2023-04-22T22:40:57.103Z,7.82
2023-04-22T22:43:23.607Z,7.55
2023-04-22T22:45:50.345Z,7.93
2023-04-22T22:48:17.519Z,7.30
2023-04-22T22:50:44.055Z,7.43
2023-04-22T22:53:10.578Z,8.00
2023-04-22T22:55:37.152Z,8.20
2023-04-22T22:58:03.630Z,7.63
2023-04-22T23:00:30.185Z,7.15
2023-04-22T23:02:56.821Z,8.05
2023-04-22T23:05:23.475Z,7.78
2023-04-22T23:07:49.982Z,7.68
2023-04-22T23:10:16.492Z,7.20
2023-04-22T23:12:42.982Z,7.18
2023-04-22T23:15:09.859Z,7.60
2023-04-22T23:17:36.883Z,7.72
2023-04-22T23:20:04.266Z,6.85
2023-04-22T23:22:32.051Z,8.45
2023-04-22T23:24:58.916Z,7.55
2023-04-22T23:27:25.767Z,6.97
2023-04-22T23:29:52.476Z,7.95
2023-04-22T23:32:19.715Z,8.35
2023-04-22T23:34:49.524Z,7.70
2023-04-22T23:37:16.258Z,8.02
2023-04-22T23:39:42.946Z,7.88
2023-04-22T23:42:09.538Z,7.95
2023-04-22T23:44:36.068Z,7.97
2023-04-22T23:47:03.444Z,7.78
2023-04-22T23:49:30.863Z,8.18
2023-04-22T23:51:57.430Z,7.53
2023-04-22T23:54:24.071Z,8.10
2023-04-22T23:56:51.467Z,8.50
2023-04-22T23:59:18.250Z,7.90
